createdAt,value
2023-05-16T00:00:06.825Z,68.05
2023-05-16T00:02:34.984Z,67.94
2023-05-16T00:05:04.454Z,67.79
2023-05-16T00:07:34.107Z,68.00
2023-05-16T00:10:02.879Z,68.08
2023-05-16T00:12:32.949Z,67.90
2023-05-16T00:15:02.316Z,67.62
2023-05-16T00:17:30.306Z,67.92
2023-05-16T00:20:00.195Z,67.92
2023-05-16T00:22:28.339Z,67.82
2023-05-16T00:24:56.352Z,67.91
2023-05-16T00:27:24.316Z,67.88
2023-05-16T00:29:52.450Z,68.09
2023-05-16T00:32:22.344Z,67.91
2023-05-16T00:34:50.808Z,68.04
2023-05-16T00:37:18.991Z,68.01
2023-05-16T00:39:47.105Z,68.03
2023-05-16T00:42:15.233Z,68.30
2023-05-16T00:44:43.278Z,67.97
2023-05-16T00:47:11.362Z,68.21
2023-05-16T00:49:40.923Z,68.00
2023-05-16T00:52:08.912Z,68.19
2023-05-16T00:54:38.251Z,67.76
2023-05-16T00:57:08.180Z,68.15
2023-05-16T00:59:37.962Z,68.13
2023-05-16T01:02:06.385Z,68.10
2023-05-16T01:04:35.506Z,68.01
2023-05-16T01:07:05.170Z,68.17
2023-05-16T01:09:36.658Z,68.45
2023-05-16T01:12:16.004Z,68.18
2023-05-16T01:14:54.172Z,68.18
2023-05-16T01:17:30.324Z,68.19
2023-05-16T01:20:12.094Z,68.13
2023-05-16T01:23:02.788Z,68.03
2023-05-16T01:25:46.854Z,68.34
2023-05-16T01:28:18.839Z,68.44
2023-05-16T01:30:47.242Z,68.12
2023-05-16T01:33:15.305Z,67.83
2023-05-16T01:35:55.366Z,67.87
2023-05-16T01:38:27.504Z,67.81
2023-05-16T01:41:01.087Z,68.08
2023-05-16T01:43:36.644Z,67.82
2023-05-16T01:46:13.504Z,68.30
2023-05-16T01:48:52.452Z,68.35
2023-05-16T01:51:23.810Z,68.81
2023-05-16T01:53:58.318Z,68.67
2023-05-16T01:56:27.491Z,68.79
2023-05-16T01:58:59.136Z,68.63
2023-05-16T02:01:27.263Z,68.78
2023-05-16T02:03:55.410Z,68.63
2023-05-16T02:06:23.766Z,68.50
2023-05-16T02:08:51.816Z,68.83
2023-05-16T02:11:19.946Z,68.78
2023-05-16T02:13:47.940Z,68.78
2023-05-16T02:16:17.595Z,68.65
2023-05-16T02:18:45.994Z,68.84
2023-05-16T02:21:19.711Z,68.79
2023-05-16T02:23:47.869Z,68.89
2023-05-16T02:26:15.953Z,68.82
2023-05-16T02:28:44.316Z,68.80
2023-05-16T02:31:13.407Z,68.70
2023-05-16T02:33:42.740Z,68.88
2023-05-16T02:36:11.443Z,68.81
2023-05-16T02:38:39.452Z,68.78
2023-05-16T02:41:07.475Z,68.85
2023-05-16T02:43:35.493Z,68.94
2023-05-16T02:46:06.197Z,68.80
2023-05-16T02:48:34.244Z,69.08
2023-05-16T02:51:04.104Z,68.97
2023-05-16T02:53:32.120Z,68.99
2023-05-16T02:56:00.375Z,69.16
2023-05-16T02:58:28.704Z,69.29
2023-05-16T03:00:56.666Z,69.63
2023-05-16T03:03:24.851Z,69.64
2023-05-16T03:05:53.133Z,69.80
2023-05-16T03:08:22.448Z,69.98
2023-05-16T03:10:50.792Z,70.08
2023-05-16T03:13:18.803Z,69.91
2023-05-16T03:15:47.940Z,70.31
2023-05-16T03:18:17.176Z,70.26
2023-05-16T03:20:45.326Z,70.01
2023-05-16T03:23:13.336Z,69.99
2023-05-16T03:25:43.654Z,69.98
2023-05-16T03:28:15.149Z,69.99
2023-05-16T03:30:43.475Z,70.20
2023-05-16T03:33:11.832Z,70.11
2023-05-16T03:35:40.870Z,69.80
2023-05-16T03:38:09.116Z,70.19
2023-05-16T03:40:37.439Z,70.56
2023-05-16T03:43:10.204Z,70.04
2023-05-16T03:45:38.321Z,70.62
2023-05-16T03:48:07.116Z,70.80
2023-05-16T03:50:39.532Z,70.96
2023-05-16T03:53:09.302Z,70.66
2023-05-16T03:55:37.509Z,70.92
2023-05-16T03:58:05.517Z,71.31
2023-05-16T04:00:37.736Z,71.16
2023-05-16T04:03:05.860Z,71.68
2023-05-16T04:05:33.975Z,71.80
2023-05-16T04:08:02.085Z,71.92
2023-05-16T04:10:30.531Z,71.97
2023-05-16T04:12:58.531Z,71.73
2023-05-16T04:15:26.654Z,71.77
2023-05-16T04:17:56.756Z,71.56
2023-05-16T04:20:24.843Z,71.65
2023-05-16T04:22:53.311Z,71.59
2023-05-16T04:25:21.367Z,71.66
2023-05-16T04:27:49.374Z,71.45
2023-05-16T04:30:17.768Z,71.55
2023-05-16T04:32:46.175Z,71.43
2023-05-16T04:35:16.127Z,71.32
2023-05-16T04:37:44.273Z,71.55
2023-05-16T04:40:14.355Z,71.57
2023-05-16T04:42:42.420Z,71.80
2023-05-16T04:45:14.632Z,72.23
2023-05-16T04:47:42.990Z,71.84
2023-05-16T04:50:11.941Z,71.70
2023-05-16T04:52:41.397Z,71.71
2023-05-16T04:55:11.590Z,72.02
2023-05-16T04:57:39.700Z,71.87
2023-05-16T05:00:13.599Z,71.96
2023-05-16T05:02:41.889Z,72.08
2023-05-16T05:05:10.714Z,71.78
2023-05-16T05:07:38.768Z,71.81
2023-05-16T05:10:09.415Z,71.68
2023-05-16T05:12:37.480Z,71.78
2023-05-16T05:15:07.224Z,71.80
2023-05-16T05:17:35.700Z,71.69
2023-05-16T05:20:06.821Z,72.08
2023-05-16T05:22:34.924Z,71.91
2023-05-16T05:25:03.547Z,71.80
2023-05-16T05:27:33.044Z,72.01
2023-05-16T05:30:01.190Z,71.92
2023-05-16T05:32:29.303Z,71.86
2023-05-16T05:34:57.408Z,71.97
2023-05-16T05:37:25.499Z,71.70
2023-05-16T05:39:53.558Z,71.68
2023-05-16T05:42:21.587Z,71.72
2023-05-16T05:44:51.096Z,71.78
2023-05-16T05:47:19.393Z,71.84
2023-05-16T05:49:47.562Z,72.16
2023-05-16T05:52:16.137Z,71.79
2023-05-16T05:54:44.169Z,71.90
2023-05-16T05:57:12.294Z,71.72
2023-05-16T05:59:40.727Z,71.81
2023-05-16T06:02:15.617Z,71.63
2023-05-16T06:04:45.271Z,71.77
2023-05-16T06:07:15.265Z,71.88
2023-05-16T06:09:43.652Z,71.94
2023-05-16T06:12:11.773Z,71.70
2023-05-16T06:14:40.054Z,71.87
2023-05-16T06:17:09.498Z,71.61
2023-05-16T06:19:37.652Z,72.00
2023-05-16T06:22:06.070Z,71.96
2023-05-16T06:24:34.235Z,71.82
2023-05-16T06:27:02.221Z,71.65
2023-05-16T06:29:30.284Z,71.36
2023-05-16T06:31:58.543Z,71.47
2023-05-16T06:34:28.670Z,70.79
2023-05-16T06:36:56.899Z,70.36
2023-05-16T06:39:24.986Z,70.19
2023-05-16T06:41:56.191Z,69.42
2023-05-16T06:44:25.068Z,69.37
2023-05-16T06:46:53.265Z,69.26
2023-05-16T06:49:21.471Z,68.85
2023-05-16T06:51:50.909Z,68.72
2023-05-16T06:54:19.034Z,68.74
2023-05-16T06:56:47.168Z,68.51
2023-05-16T06:59:15.599Z,68.16
2023-05-16T07:01:43.812Z,68.00
2023-05-16T07:04:12.066Z,68.12
2023-05-16T07:06:40.159Z,68.35
2023-05-16T07:09:09.649Z,68.47
2023-05-16T07:11:37.720Z,68.74
2023-05-16T07:14:05.868Z,68.88
2023-05-16T07:16:34.036Z,69.39
2023-05-16T07:19:02.178Z,69.36
2023-05-16T07:21:30.449Z,69.46
2023-05-16T07:23:58.905Z,69.33
2023-05-16T07:26:28.516Z,69.43
2023-05-16T07:28:56.666Z,69.83
2023-05-16T07:31:25.294Z,69.72
2023-05-16T07:33:53.557Z,69.56
2023-05-16T07:36:21.760Z,70.22
2023-05-16T07:38:49.825Z,69.94
2023-05-16T07:41:17.963Z,70.46
2023-05-16T07:43:47.453Z,70.40
2023-05-16T07:46:18.244Z,70.06
2023-05-16T07:48:46.573Z,70.38
2023-05-16T07:51:14.757Z,70.43
2023-05-16T07:53:43.045Z,70.63
2023-05-16T07:56:11.393Z,71.19
2023-05-16T07:58:39.827Z,71.22
2023-05-16T08:01:09.219Z,71.01
2023-05-16T08:03:40.955Z,71.08
2023-05-16T08:06:09.334Z,71.37
2023-05-16T08:08:38.061Z,71.34
2023-05-16T08:11:30.188Z,71.49
2023-05-16T08:13:58.390Z,71.82
2023-05-16T08:16:27.897Z,71.61
2023-05-16T08:18:56.538Z,71.58
2023-05-16T08:21:24.810Z,72.09
2023-05-16T08:23:52.886Z,71.97
2023-05-16T08:26:22.029Z,72.06
2023-05-16T08:28:50.261Z,72.40
2023-05-16T08:31:18.375Z,72.10
2023-05-16T08:33:47.909Z,71.66
2023-05-16T08:36:16.206Z,71.80
2023-05-16T08:38:44.264Z,72.38
2023-05-16T08:41:12.374Z,72.42
2023-05-16T08:43:40.864Z,72.07
2023-05-16T08:46:09.622Z,71.79
2023-05-16T08:48:39.670Z,72.08
2023-05-16T08:51:10.868Z,72.18
2023-05-16T08:53:44.337Z,72.38
2023-05-16T08:56:13.959Z,72.72
2023-05-16T08:58:42.330Z,72.82
2023-05-16T09:01:11.185Z,72.70
2023-05-16T09:03:40.199Z,72.39
2023-05-16T09:06:09.867Z,72.11
2023-05-16T09:08:38.750Z,72.32
2023-05-16T09:11:07.064Z,73.07
2023-05-16T09:13:35.419Z,72.86
2023-05-16T09:16:11.327Z,72.26
2023-05-16T09:18:40.262Z,72.25
2023-05-16T09:21:11.242Z,72.07
2023-05-16T09:23:39.569Z,72.21
2023-05-16T09:26:08.596Z,71.98
2023-05-16T09:28:39.822Z,71.92
2023-05-16T09:31:22.868Z,71.49
2023-05-16T09:33:51.563Z,72.05
2023-05-16T09:36:21.075Z,71.68
2023-05-16T09:38:49.374Z,71.73
2023-05-16T09:41:17.592Z,71.79
2023-05-16T09:43:46.458Z,72.42
2023-05-16T09:46:15.688Z,71.51
2023-05-16T09:48:47.453Z,70.91
2023-05-16T09:51:16.354Z,71.53
2023-05-16T09:53:46.152Z,71.62
2023-05-16T09:56:16.358Z,71.63
2023-05-16T09:58:46.302Z,71.16
2023-05-16T10:01:14.506Z,70.81
2023-05-16T10:03:44.014Z,70.80
2023-05-16T10:06:13.896Z,70.49
2023-05-16T10:08:45.686Z,71.41
2023-05-16T10:11:15.254Z,70.68
2023-05-16T10:13:44.889Z,71.16
2023-05-16T10:16:16.065Z,70.29
2023-05-16T10:18:44.946Z,70.23
2023-05-16T10:21:17.838Z,70.67
2023-05-16T10:23:51.025Z,70.58
2023-05-16T10:26:19.248Z,70.65
2023-05-16T10:28:47.950Z,70.27
2023-05-16T10:31:17.780Z,69.62
2023-05-16T10:33:47.019Z,69.65
2023-05-16T10:36:16.408Z,69.64
2023-05-16T10:38:46.197Z,69.12
2023-05-16T10:41:15.234Z,69.89
2023-05-16T10:43:57.408Z,69.75
2023-05-16T10:46:28.007Z,69.75
2023-05-16T10:48:57.872Z,70.09
2023-05-16T10:51:38.893Z,68.64
2023-05-16T10:54:12.607Z,69.01
2023-05-16T10:56:41.122Z,68.87
2023-05-16T10:59:26.125Z,69.41
2023-05-16T11:01:56.893Z,69.51
2023-05-16T11:04:45.589Z,69.68
2023-05-16T11:07:13.897Z,69.33
2023-05-16T11:09:46.019Z,68.46
2023-05-16T11:12:15.662Z,68.35
2023-05-16T11:14:45.153Z,68.19
2023-05-16T11:17:16.294Z,68.54
2023-05-16T11:19:46.847Z,68.28
2023-05-16T11:22:26.890Z,68.76
2023-05-16T11:25:01.409Z,68.57
2023-05-16T11:27:32.548Z,68.83
2023-05-16T11:30:12.825Z,68.86
2023-05-16T11:32:43.665Z,68.76
2023-05-16T11:35:15.381Z,68.47
2023-05-16T11:37:44.100Z,68.28
2023-05-16T11:40:15.719Z,68.39
2023-05-16T11:42:46.272Z,68.33
2023-05-16T11:45:17.859Z,68.60
2023-05-16T11:47:48.862Z,69.19
2023-05-16T11:50:19.439Z,69.47
2023-05-16T11:52:50.532Z,69.18
2023-05-16T11:55:33.199Z,69.55
2023-05-16T11:58:09.276Z,69.48
2023-05-16T12:00:37.645Z,68.93
2023-05-16T12:03:06.864Z,68.23
2023-05-16T12:05:36.030Z,68.16
2023-05-16T12:08:05.645Z,68.73
2023-05-16T12:10:35.481Z,68.96
2023-05-16T12:13:04.824Z,67.57
2023-05-16T12:15:33.172Z,68.00
2023-05-16T12:18:02.445Z,68.12
2023-05-16T12:20:30.781Z,67.32
2023-05-16T12:22:59.479Z,67.17
2023-05-16T12:25:32.024Z,67.26
2023-05-16T12:28:03.465Z,67.05
2023-05-16T12:30:33.975Z,66.66
2023-05-16T12:33:07.995Z,66.59
2023-05-16T12:35:38.893Z,66.46
2023-05-16T12:38:10.010Z,66.51
2023-05-16T12:40:39.488Z,66.79
2023-05-16T12:43:15.327Z,66.24
2023-05-16T12:45:44.373Z,66.29
2023-05-16T12:48:16.112Z,66.24
2023-05-16T12:50:46.551Z,66.18
2023-05-16T12:53:17.050Z,66.54
2023-05-16T12:55:46.409Z,66.27
2023-05-16T12:58:16.517Z,66.34
2023-05-16T13:00:44.760Z,65.93
2023-05-16T13:03:12.959Z,66.23
2023-05-16T13:05:41.136Z,66.06
2023-05-16T13:13:54.710Z,65.45
2023-05-16T13:16:22.823Z,65.19
2023-05-16T13:18:51.038Z,65.14
2023-05-16T13:21:19.154Z,64.91
2023-05-16T13:23:47.215Z,64.83
2023-05-16T13:26:15.380Z,64.66
2023-05-16T13:28:43.962Z,64.68
2023-05-16T13:31:13.414Z,64.48
2023-05-16T13:33:41.808Z,64.52
2023-05-16T13:36:10.130Z,64.17
2023-05-16T13:38:38.423Z,64.10
2023-05-16T13:41:06.538Z,64.69
2023-05-16T13:43:34.740Z,64.59
2023-05-16T13:46:02.984Z,63.75
2023-05-16T13:48:32.544Z,63.47
2023-05-16T13:51:00.624Z,64.69
2023-05-16T13:53:28.662Z,65.08
2023-05-16T13:55:56.705Z,63.84
2023-05-16T13:58:24.813Z,64.41
2023-05-16T14:00:53.767Z,64.83
2023-05-16T14:03:22.863Z,64.39
2023-05-16T14:05:52.313Z,63.87
2023-05-16T14:08:20.610Z,63.85
2023-05-16T14:10:48.865Z,64.25
2023-05-16T14:13:17.205Z,63.05
2023-05-16T14:15:45.936Z,63.25
2023-05-16T14:18:14.635Z,62.92
2023-05-16T14:20:42.899Z,62.33
2023-05-16T14:23:12.677Z,62.14
2023-05-16T14:25:41.259Z,61.29
2023-05-16T14:28:09.616Z,61.27
2023-05-16T14:30:37.928Z,62.08
2023-05-16T14:33:06.665Z,62.00
2023-05-16T14:35:34.966Z,61.75
2023-05-16T14:38:03.022Z,62.24
2023-05-16T14:40:32.503Z,62.26
2023-05-16T14:43:00.890Z,61.73
2023-05-16T14:45:29.429Z,62.00
2023-05-16T14:47:57.770Z,62.13
2023-05-16T14:50:25.977Z,62.12
2023-05-16T14:52:54.090Z,61.71
2023-05-16T14:55:22.835Z,61.87
2023-05-16T14:57:59.019Z,62.14
2023-05-16T15:00:28.454Z,62.49
2023-05-16T15:02:56.818Z,62.78
2023-05-16T15:05:25.736Z,62.61
2023-05-16T15:07:53.922Z,60.98
2023-05-16T15:10:22.278Z,62.42
2023-05-16T15:12:51.765Z,62.30
2023-05-16T15:15:20.040Z,60.96
2023-05-16T15:17:48.568Z,61.00
2023-05-16T15:20:16.705Z,60.90
2023-05-16T15:22:44.991Z,60.88
2023-05-16T15:25:15.745Z,61.11
2023-05-16T15:27:44.348Z,60.89
2023-05-16T15:30:16.336Z,60.88
2023-05-16T15:32:44.938Z,61.39
2023-05-16T15:35:13.285Z,61.00
2023-05-16T15:37:43.632Z,61.05
2023-05-16T15:40:15.577Z,60.27
2023-05-16T15:42:44.879Z,60.69
2023-05-16T15:45:14.621Z,60.76
2023-05-16T15:47:42.955Z,59.84
2023-05-16T15:50:16.623Z,60.13
2023-05-16T15:52:44.869Z,59.93
2023-05-16T15:55:17.492Z,60.24
2023-05-16T15:57:45.657Z,59.73
2023-05-16T16:00:17.540Z,60.18
2023-05-16T16:02:46.142Z,60.19
2023-05-16T16:05:14.745Z,59.96
2023-05-16T16:07:43.045Z,60.12
2023-05-16T16:10:14.191Z,60.26
2023-05-16T16:12:42.334Z,59.44
2023-05-16T16:15:14.890Z,59.50
2023-05-16T16:17:43.601Z,59.40
2023-05-16T16:20:12.682Z,59.70
2023-05-16T16:22:40.964Z,59.42
2023-05-16T16:25:10.033Z,59.69
2023-05-16T16:27:38.210Z,58.80
2023-05-16T16:30:08.477Z,58.84
2023-05-16T16:32:38.250Z,58.60
2023-05-16T16:35:07.778Z,58.83
2023-05-16T16:37:36.690Z,58.54
2023-05-16T16:40:08.212Z,57.81
2023-05-16T16:42:38.036Z,57.11
2023-05-16T16:45:07.781Z,57.11
2023-05-16T16:47:39.305Z,56.74
2023-05-16T16:50:08.934Z,56.59
2023-05-16T16:52:37.224Z,56.49
2023-05-16T16:55:07.510Z,55.74
2023-05-16T16:57:35.724Z,55.70
2023-05-16T17:00:04.550Z,55.76
2023-05-16T17:02:33.783Z,55.29
2023-05-16T17:05:04.855Z,55.68
2023-05-16T17:07:33.131Z,54.69
2023-05-16T17:10:03.837Z,55.41
2023-05-16T17:12:34.656Z,55.16
2023-05-16T17:15:06.711Z,55.04
2023-05-16T17:17:35.097Z,54.72
2023-05-16T17:20:09.024Z,54.50
2023-05-16T17:22:37.435Z,54.54
2023-05-16T17:25:06.586Z,54.76
2023-05-16T17:27:37.581Z,54.58
2023-05-16T17:30:11.454Z,54.99
2023-05-16T17:32:40.087Z,55.12
2023-05-16T17:35:10.485Z,55.29
2023-05-16T17:37:38.583Z,54.65
2023-05-16T17:40:10.486Z,54.08
2023-05-16T17:42:38.931Z,54.17
2023-05-16T17:45:09.179Z,55.17
2023-05-16T17:47:37.908Z,54.48
2023-05-16T17:50:10.497Z,54.09
2023-05-16T17:52:40.504Z,54.34
2023-05-16T17:55:10.932Z,53.71
2023-05-16T17:57:39.283Z,52.71
2023-05-16T18:00:11.493Z,51.36
2023-05-16T18:02:40.091Z,51.77
2023-05-16T18:05:12.042Z,52.35
2023-05-16T18:07:41.069Z,52.40
2023-05-16T18:10:11.495Z,52.36
2023-05-16T18:12:40.429Z,51.36
2023-05-16T18:15:10.819Z,52.05
2023-05-16T18:17:39.264Z,52.14
2023-05-16T18:20:11.681Z,51.37
2023-05-16T18:22:41.256Z,51.13
2023-05-16T18:25:11.466Z,50.70
2023-05-16T18:27:39.786Z,50.79
2023-05-16T18:33:04.144Z,49.22
2023-05-16T18:35:33.825Z,49.55
2023-05-16T18:38:03.954Z,49.61
2023-05-16T18:40:32.582Z,49.75
2023-05-16T18:43:00.949Z,48.81
2023-05-16T18:45:30.818Z,49.89
2023-05-16T18:47:59.282Z,48.63
2023-05-16T18:50:28.332Z,49.11
2023-05-16T18:52:58.116Z,48.95
2023-05-16T18:55:26.849Z,48.85
2023-05-16T18:57:55.667Z,49.11
2023-05-16T19:00:24.108Z,49.30
2023-05-16T19:02:52.945Z,48.80
2023-05-16T19:05:21.359Z,49.31
2023-05-16T19:07:50.845Z,48.43
2023-05-16T19:10:20.747Z,47.85
2023-05-16T19:12:49.371Z,47.63
2023-05-16T19:15:18.833Z,47.45
2023-05-16T19:17:47.277Z,47.66
2023-05-16T19:20:15.691Z,48.25
2023-05-16T19:22:43.972Z,48.72
2023-05-16T19:25:12.268Z,47.08
2023-05-16T19:27:42.928Z,47.60
2023-05-16T19:30:12.914Z,47.97
2023-05-16T19:32:41.273Z,46.99
2023-05-16T19:35:10.959Z,48.21
2023-05-16T19:37:41.760Z,48.04
2023-05-16T19:40:11.163Z,47.32
2023-05-16T19:42:41.356Z,47.83
2023-05-16T19:45:11.333Z,47.41
2023-05-16T19:47:40.234Z,47.89
2023-05-16T19:50:10.303Z,47.72
2023-05-16T19:52:38.568Z,48.52
2023-05-16T19:55:10.508Z,49.48
2023-05-16T19:57:39.411Z,48.62
2023-05-16T20:00:11.283Z,48.83
2023-05-16T20:02:43.379Z,48.75
2023-05-16T20:05:12.693Z,49.36
2023-05-16T20:07:41.311Z,49.81
2023-05-16T20:10:11.102Z,49.34
2023-05-16T20:12:39.585Z,49.44
2023-05-16T20:15:11.084Z,49.28
2023-05-16T20:17:41.180Z,49.55
2023-05-16T20:20:10.914Z,49.96
2023-05-16T20:22:41.462Z,49.63
2023-05-16T20:25:14.714Z,49.76
2023-05-16T20:27:43.038Z,49.30
2023-05-16T20:30:14.621Z,50.04
2023-05-16T20:32:42.995Z,49.83
2023-05-16T20:35:14.850Z,49.95
2023-05-16T20:37:49.331Z,50.21
2023-05-16T20:40:17.608Z,50.22
2023-05-16T20:42:45.912Z,50.42
2023-05-16T20:45:17.420Z,50.03
2023-05-16T20:47:47.529Z,49.89
2023-05-16T20:50:15.884Z,50.19
2023-05-16T20:52:44.160Z,50.10
2023-05-16T20:55:12.446Z,50.25
2023-05-16T20:57:43.113Z,50.31
2023-05-16T21:00:16.153Z,50.71
2023-05-16T21:02:45.814Z,50.93
2023-05-16T21:05:25.006Z,50.51
2023-05-16T21:07:54.486Z,51.06
2023-05-16T21:10:22.756Z,51.06
2023-05-16T21:12:51.255Z,50.87
2023-05-16T21:15:23.022Z,51.39
2023-05-16T21:17:53.530Z,51.29
2023-05-16T21:20:21.832Z,51.26
2023-05-16T21:23:14.628Z,51.59
2023-05-16T21:25:42.819Z,51.69
2023-05-16T21:28:10.968Z,51.67
2023-05-16T21:30:39.222Z,50.79
2023-05-16T21:33:10.485Z,50.93
2023-05-16T21:35:38.937Z,51.70
2023-05-16T21:38:07.008Z,50.57
2023-05-16T21:40:35.121Z,50.78
2023-05-16T21:43:03.280Z,51.26
2023-05-16T21:45:31.389Z,51.21
2023-05-16T21:47:59.506Z,50.64
2023-05-16T21:50:29.300Z,50.41
2023-05-16T21:52:57.391Z,50.50
2023-05-16T21:55:25.896Z,50.19
2023-05-16T21:57:54.088Z,50.36
2023-05-16T22:00:24.879Z,50.40
2023-05-16T22:02:53.073Z,50.03
2023-05-16T22:05:45.924Z,50.90
2023-05-16T22:08:15.378Z,50.75
2023-05-16T22:10:43.672Z,50.20
2023-05-16T22:13:14.349Z,50.19
2023-05-16T22:15:44.523Z,50.17
2023-05-16T22:18:15.805Z,50.40
2023-05-16T22:20:44.117Z,50.48
2023-05-16T22:23:12.393Z,50.42
2023-05-16T22:25:41.809Z,50.37
2023-05-16T22:28:09.867Z,50.35
2023-05-16T22:30:38.095Z,51.19
2023-05-16T22:33:06.315Z,51.08
2023-05-16T22:35:35.070Z,51.04
2023-05-16T22:38:04.224Z,50.85
2023-05-16T22:40:32.356Z,50.81
2023-05-16T22:43:01.824Z,51.57
2023-05-16T22:45:30.045Z,51.38
2023-05-16T22:47:58.304Z,51.60
2023-05-16T22:50:26.485Z,51.51
2023-05-16T22:52:54.675Z,51.93
2023-05-16T22:55:22.917Z,51.80
2023-05-16T22:57:52.707Z,51.34
2023-05-16T23:00:23.562Z,52.22
2023-05-16T23:02:51.773Z,51.62
2023-05-16T23:05:20.317Z,51.67
2023-05-16T23:07:48.417Z,52.14
2023-05-16T23:10:16.755Z,51.61
2023-05-16T23:12:44.847Z,51.87
2023-05-16T23:15:13.447Z,51.95
2023-05-16T23:17:43.104Z,52.77
2023-05-16T23:20:12.131Z,51.84
2023-05-16T23:22:40.316Z,52.55
2023-05-16T23:25:09.427Z,52.16
2023-05-16T23:27:37.519Z,52.34
2023-05-16T23:30:07.814Z,52.45
2023-05-16T23:32:36.458Z,52.76
2023-05-16T23:35:07.417Z,52.64
2023-05-16T23:43:21.048Z,53.48
2023-05-16T23:45:49.196Z,53.29
2023-05-16T23:48:17.350Z,53.29
2023-05-16T23:50:46.829Z,53.43
2023-05-16T23:53:14.913Z,52.90
2023-05-16T23:55:43.030Z,53.60
2023-05-16T23:58:11.158Z,53.41
